CYPR/YPR METAR and TAF weather

Enter ICAO airport designator
Station Type Date Time Source
CYPR METAR 2021/09/25 03:13 UTC NOAA

CYPR 250313Z AUTO 13005KT 9SM FEW010 SCT016 OVC042 12/11 A2987 RMK SLP118


Station Type Date Time Source
CYPR Decoded METAR 2021/09/25 03:13 UTC NOAA

Prince Rupert, B. C., Canada (CYPR) 54-18N 130-26W 34M
Sep 24, 2021 - 11:13 PM EDT / 2021.09.25 0313 UTC
Wind: from the SE (130 degrees) at 6 MPH (5 KT):0
Visibility: 9 mile(s):0
Sky conditions: overcast
Temperature: 53 F (12 C)
Dew Point: 51 F (11 C)
Relative Humidity: 93%
Pressure (altimeter): 29.87 in. Hg (1011 hPa)
ob: CYPR 250313Z AUTO 13005KT 9SM FEW010 SCT016 OVC042 12/11 A2987 RMK SLP118
cycle: 3

Station Type Date Time Source
CYPR TAF 2021/09/25 01:57 UTC NOAA

TAF
AMD CYPR 250153Z 2501/2513 14005KT 6SM -RA BR SCT004 BKN010 OVC025
TEMPO 2501/2506 1SM -RA BR BKN004 OVC008
FM250600 VRB03KT P6SM BKN030
TEMPO 2506/2513 4SM -SHRA BR FEW006 OVC020
RMK FCST BASED ON AUTO OBS. NXT FCST BY 250700Z

Example: see airport list